Time;durP1;ratioP1;P1;durP2;ratioP2;P2;SDS_P1;SDS_P2;PMS_P1;PMS_P2;Temp;Humidity;BMP_temperature;BMP_pressure;BME280_temperature;BME280_humidity;BME280_pressure;Samples;Min_cycle;Max_cycle;Signal;HPM_P1;HPM_P2
2022/10/10 00:02:03;;;;;;;5.15;3.20;;;;;;;16.29;100.00;96494.78;4968978;28;20066;-44
2022/10/10 00:04:32;;;;;;;6.50;3.58;;;;;;;16.23;100.00;96492.03;4966872;28;20085;-44
2022/10/10 00:07:01;;;;;;;6.68;3.53;;;;;;;15.77;100.00;96492.88;4966702;28;20082;-42
2022/10/10 00:09:29;;;;;;;5.38;3.40;;;;;;;15.65;100.00;96486.25;4967064;28;20150;-42
2022/10/10 00:11:57;;;;;;;5.78;3.30;;;;;;;15.62;100.00;96489.25;4967637;28;20078;-44
2022/10/10 00:14:25;;;;;;;6.05;3.22;;;;;;;15.36;100.00;96478.94;4969285;28;20474;-43
2022/10/10 00:16:59;;;;;;;6.90;3.42;;;;;;;15.78;100.00;96486.53;4967883;28;20494;-42
2022/10/10 00:19:27;;;;;;;4.60;3.45;;;;;;;15.80;100.00;96481.88;4966016;28;20078;-42
2022/10/10 00:21:57;;;;;;;5.85;3.45;;;;;;;15.61;100.00;96484.94;4968728;28;20074;-43
2022/10/10 00:24:25;;;;;;;5.65;3.45;;;;;;;14.93;100.00;96484.63;4963143;28;20683;-45
2022/10/10 00:26:53;;;;;;;6.03;3.70;;;;;;;15.56;100.00;96476.69;4969000;28;20054;-41
2022/10/10 00:29:22;;;;;;;5.97;3.63;;;;;;;15.19;100.00;96481.69;4968527;28;20087;-43
2022/10/10 00:31:50;;;;;;;6.90;4.60;;;;;;;15.69;100.00;96484.09;4967873;28;20149;-42
2022/10/10 00:34:18;;;;;;;5.75;3.65;;;;;;;15.24;100.00;96490.94;4963455;28;20488;-46
2022/10/10 00:36:46;;;;;;;8.23;3.80;;;;;;;15.24;100.00;96482.97;4965332;28;20506;-44
2022/10/10 00:39:16;;;;;;;7.40;3.75;;;;;;;15.17;100.00;96483.69;4968192;28;20085;-43
2022/10/10 00:41:44;;;;;;;5.63;3.83;;;;;;;15.28;100.00;96487.78;4965790;28;20079;-42
2022/10/10 00:44:14;;;;;;;7.45;3.97;;;;;;;15.15;100.00;96487.50;4969249;28;20078;-47
2022/10/10 00:46:42;;;;;;;6.90;3.83;;;;;;;15.12;100.00;96485.19;4967804;28;20537;-44
2022/10/10 00:49:14;;;;;;;6.13;3.85;;;;;;;15.04;100.00;96477.28;4968784;28;20074;-42
2022/10/10 00:51:44;;;;;;;6.45;4.07;;;;;;;14.61;100.00;96479.38;4966416;28;20090;-45
2022/10/10 00:54:12;;;;;;;5.88;4.35;;;;;;;14.04;100.00;96479.38;4968597;28;20551;-41
2022/10/10 00:56:45;;;;;;;5.72;3.92;;;;;;;14.78;100.00;96481.00;4967562;28;20090;-45
2022/10/10 00:59:14;;;;;;;5.78;4.22;;;;;;;15.11;100.00;96481.72;4969422;28;20087;-42
2022/10/10 01:01:42;;;;;;;7.70;4.20;;;;;;;14.84;100.00;96472.34;4967770;28;20086;-42
2022/10/10 01:04:32;;;;;;;5.05;3.60;;;;;;;15.36;100.00;96477.13;4966814;28;20086;-42
2022/10/10 01:07:02;;;;;;;5.93;4.07;;;;;;;14.16;100.00;96483.38;4968483;28;20101;-40
2022/10/10 01:09:30;;;;;;;5.00;4.43;;;;;;;14.14;100.00;96474.75;4968197;28;20089;-42
2022/10/10 01:12:08;;;;;;;5.95;3.88;;;;;;;14.12;100.00;96474.94;4964588;28;20091;-43
2022/10/10 01:14:40;;;;;;;6.70;3.65;;;;;;;14.65;100.00;96470.06;4967298;28;20079;-45
2022/10/10 01:17:12;;;;;;;5.70;4.63;;;;;;;14.90;100.00;96468.16;4961362;28;20090;-43
2022/10/10 01:20:17;;;;;;;4.72;3.75;;;;;;;14.96;100.00;96468.31;4967066;28;20074;-41
2022/10/10 01:22:58;;;;;;;7.47;4.05;;;;;;;15.38;100.00;96464.50;4960854;28;20082;-44
2022/10/10 01:25:29;;;;;;;7.47;4.15;;;;;;;14.90;100.00;96462.84;4968085;28;20082;-43
2022/10/10 01:27:59;;;;;;;;;;;;;;;14.98;100.00;96462.84;4966813;28;20179;-46
2022/10/10 01:30:29;;;;;;;5.80;4.35;;;;;;;15.04;100.00;96453.38;4967091;28;19957;-42
2022/10/10 01:33:05;;;;;;;6.63;4.30;;;;;;;15.63;100.00;96454.53;4967710;28;20090;-42
2022/10/10 01:35:42;;;;;;;7.93;4.35;;;;;;;15.41;100.00;96457.97;4967973;28;20078;-43
2022/10/10 01:38:17;;;;;;;6.03;4.28;;;;;;;15.39;100.00;96454.69;4967024;28;20085;-40
2022/10/10 01:40:49;;;;;;;7.28;4.28;;;;;;;15.54;100.00;96450.25;4960253;28;20572;-44
2022/10/10 01:43:18;;;;;;;6.45;4.20;;;;;;;15.83;100.00;96449.63;4966634;28;20089;-43
2022/10/10 01:45:49;;;;;;;7.80;3.80;;;;;;;16.18;100.00;96439.34;4967333;28;20638;-43
2022/10/10 01:48:19;;;;;;;5.43;3.88;;;;;;;16.13;100.00;96450.50;4966961;28;20143;-41
2022/10/10 01:51:02;;;;;;;5.50;4.03;;;;;;;16.31;100.00;96450.22;4966772;28;20789;-43
2022/10/10 01:53:36;;;;;;;6.38;4.20;;;;;;;16.29;100.00;96454.06;4967916;28;20109;-41
2022/10/10 01:56:09;;;;;;;9.23;4.20;;;;;;;16.56;100.00;96455.28;4967028;28;20077;-43
2022/10/10 01:58:52;;;;;;;6.68;3.97;;;;;;;16.40;100.00;96456.28;4967186;28;20549;-41
2022/10/10 02:01:26;;;;;;;7.78;4.05;;;;;;;16.60;100.00;96461.91;4965133;28;20086;-41
2022/10/10 02:04:00;;;;;;;9.32;4.43;;;;;;;16.52;100.00;96457.50;4966868;28;20074;-42
2022/10/10 02:06:33;;;;;;;8.85;4.80;;;;;;;16.03;100.00;96454.44;4966624;28;20078;-41
2022/10/10 02:09:05;;;;;;;6.55;4.20;;;;;;;16.62;100.00;96454.56;4968048;28;20086;-44
2022/10/10 02:11:36;;;;;;;12.02;4.88;;;;;;;16.18;100.00;96457.97;4964229;28;20109;-44
2022/10/10 02:14:09;;;;;;;17.05;5.85;;;;;;;15.30;100.00;96455.72;4966977;28;20086;-41
2022/10/10 02:16:42;;;;;;;16.20;6.22;;;;;;;14.93;100.00;96454.56;4962081;28;20082;-45
2022/10/10 02:19:13;;;;;;;18.20;6.63;;;;;;;15.17;100.00;96450.97;4965610;28;20089;-45
2022/10/10 02:21:42;;;;;;;13.90;7.03;;;;;;;14.66;100.00;96461.97;4966578;28;20153;-43
2022/10/10 02:24:12;;;;;;;23.15;7.40;;;;;;;14.60;100.00;96454.66;4966068;28;20541;-44
2022/10/10 02:26:43;;;;;;;17.15;6.95;;;;;;;15.10;100.00;96450.81;4966904;28;20078;-43
2022/10/10 02:29:14;;;;;;;14.48;6.95;;;;;;;15.67;100.00;96449.72;4964809;28;20581;-41
2022/10/10 02:31:44;;;;;;;;;;;;;;;16.20;100.00;96447.97;4966084;28;20078;-47
2022/10/10 02:34:15;;;;;;;19.00;7.07;;;;;;;15.96;100.00;96445.50;4965398;28;20571;-45
2022/10/10 02:36:48;;;;;;;15.57;7.32;;;;;;;15.83;100.00;96452.28;4964858;28;20477;-41
2022/10/10 02:39:18;;;;;;;15.30;7.68;;;;;;;16.26;100.00;96455.25;4965607;28;20082;-44
2022/10/10 02:41:47;;;;;;;16.33;7.20;;;;;;;16.59;100.00;96449.63;4962208;28;20074;-43
2022/10/10 02:44:15;;;;;;;17.98;7.88;;;;;;;16.76;100.00;96456.44;4966988;28;20057;-44
2022/10/10 02:46:45;;;;;;;17.95;8.00;;;;;;;16.92;100.00;96451.94;4966220;28;20416;-43
2022/10/10 02:49:13;;;;;;;21.33;8.23;;;;;;;16.68;100.00;96460.97;4965852;28;20078;-41
2022/10/10 02:51:42;;;;;;;23.48;8.20;;;;;;;16.19;100.00;96469.44;4967014;28;20082;-45
2022/10/10 02:54:10;;;;;;;20.80;7.57;;;;;;;16.29;100.00;96464.69;4967299;28;20117;-42
2022/10/10 02:56:38;;;;;;;23.65;8.05;;;;;;;15.99;100.00;96461.94;4965469;28;20082;-41
2022/10/10 02:59:06;;;;;;;21.27;8.13;;;;;;;16.11;100.00;96459.72;4962366;28;20089;-42
2022/10/10 03:01:35;;;;;;;19.73;8.13;;;;;;;16.25;100.00;96458.91;4965536;28;20117;-41
2022/10/10 03:04:04;;;;;;;18.63;8.57;;;;;;;16.81;100.00;96458.53;4965626;28;20086;-42
2022/10/10 03:06:33;;;;;;;31.40;9.20;;;;;;;16.96;100.00;96454.03;4965291;28;20074;-43
2022/10/10 03:09:01;;;;;;;20.70;8.13;;;;;;;17.03;100.00;96452.31;4965651;28;20094;-41
2022/10/10 03:11:29;;;;;;;14.55;8.18;;;;;;;16.95;100.00;96455.06;4963653;28;20078;-44
2022/10/10 03:13:57;;;;;;;29.92;9.25;;;;;;;16.89;100.00;96463.78;4964691;28;20086;-44
2022/10/10 03:16:26;;;;;;;18.70;8.15;;;;;;;17.22;100.00;96456.22;4959384;28;20506;-46
2022/10/10 03:18:54;;;;;;;19.42;8.23;;;;;;;17.31;100.00;96449.78;4965385;28;20541;-43
2022/10/10 03:21:23;;;;;;;21.85;7.85;;;;;;;17.45;100.00;96444.59;4965686;28;20093;-42
2022/10/10 03:23:52;;;;;;;20.45;8.88;;;;;;;17.46;100.00;96447.06;4965473;28;20086;-41
2022/10/10 03:26:20;;;;;;;22.15;9.15;;;;;;;17.39;100.00;96445.34;4964092;28;20082;-42
2022/10/10 03:28:48;;;;;;;23.67;8.38;;;;;;;17.26;100.00;96446.84;4965729;28;20518;-43
2022/10/10 03:31:17;;;;;;;24.25;9.18;;;;;;;16.98;100.00;96452.03;4967087;28;20481;-42
2022/10/10 03:33:45;;;;;;;35.70;9.38;;;;;;;16.92;100.00;96451.94;4965261;28;20078;-46
2022/10/10 03:36:13;;;;;;;39.90;9.77;;;;;;;16.98;100.00;96451.19;4960258;28;20089;-43
2022/10/10 03:38:43;;;;;;;24.02;9.13;;;;;;;16.36;100.00;96460.31;4966231;28;20074;-41
2022/10/10 03:41:11;;;;;;;36.05;10.65;;;;;;;16.22;100.00;96455.78;4964130;28;20097;-42
2022/10/10 03:43:39;;;;;;;41.35;10.48;;;;;;;15.96;100.00;96456.16;4966286;28;20098;-43
2022/10/10 03:46:08;;;;;;;38.65;10.25;;;;;;;16.10;100.00;96460.69;4966227;28;20529;-42
2022/10/10 03:48:43;;;;;;;36.97;10.43;;;;;;;16.81;100.00;96448.72;4965053;28;20086;-42
2022/10/10 03:51:11;;;;;;;42.00;11.48;;;;;;;17.05;100.00;96450.25;4965588;28;20082;-44
2022/10/10 03:53:39;;;;;;;45.05;11.23;;;;;;;16.68;100.00;96459.16;4966231;28;20086;-46
2022/10/10 03:56:09;;;;;;;43.92;10.55;;;;;;;16.65;100.00;96451.53;4968303;28;20106;-47
2022/10/10 03:58:37;;;;;;;52.97;11.10;;;;;;;17.17;100.00;96444.47;4969475;28;20140;-46
2022/10/10 04:01:05;;;;;;;46.90;11.13;;;;;;;17.22;100.00;96445.56;4969896;28;20470;-45
2022/10/10 04:03:34;;;;;;;55.72;11.18;;;;;;;17.24;100.00;96450.69;4965903;28;20074;-44
2022/10/10 04:06:02;;;;;;;76.47;12.18;;;;;;;17.29;100.00;96446.47;4965775;28;20471;-39
2022/10/10 04:08:30;;;;;;;33.85;11.40;;;;;;;17.66;100.00;96446.47;4968501;28;20097;-43
2022/10/10 04:10:58;;;;;;;59.85;12.25;;;;;;;17.47;100.00;96445.22;4970026;28;20095;-43
2022/10/10 04:13:28;;;;;;;48.10;12.25;;;;;;;17.45;100.00;96447.28;4968127;28;20510;-40
2022/10/10 04:15:56;;;;;;;48.08;12.48;;;;;;;17.41;100.00;96444.16;4969534;28;20483;-44
2022/10/10 04:18:25;;;;;;;43.85;12.57;;;;;;;17.27;100.00;96443.19;4968217;28;20082;-47
2022/10/10 04:20:53;;;;;;;48.35;12.10;;;;;;;17.36;100.00;96441.22;4969215;28;20109;-42
2022/10/10 04:23:21;;;;;;;33.15;11.88;;;;;;;17.38;100.00;96433.88;4967368;28;20097;-47
2022/10/10 04:25:51;;;;;;;55.83;12.15;;;;;;;16.96;100.00;96443.38;4964932;28;20093;-47
2022/10/10 04:28:19;;;;;;;35.30;11.63;;;;;;;17.60;100.00;96433.88;4967662;28;20545;-42
2022/10/10 04:30:49;;;;;;;54.58;12.23;;;;;;;17.64;100.00;96448.50;4965105;28;20074;-42
2022/10/10 04:33:17;;;;;;;51.27;12.27;;;;;;;17.69;100.00;96438.09;4960990;28;20090;-45
2022/10/10 04:35:47;;;;;;;44.13;11.93;;;;;;;18.03;100.00;96435.59;4965063;28;20075;-45
2022/10/10 04:38:15;;;;;;;42.23;11.87;;;;;;;18.05;100.00;96439.91;4963107;28;20565;-46
2022/10/10 04:40:43;;;;;;;78.10;13.50;;;;;;;17.44;100.00;96434.94;4963093;28;20086;-43
2022/10/10 04:43:12;;;;;;;36.38;12.27;;;;;;;17.85;100.00;96439.69;4968064;28;20078;-45
2022/10/10 04:45:40;;;;;;;57.75;12.75;;;;;;;17.79;100.00;96442.13;4967110;28;20078;-43
2022/10/10 04:48:10;;;;;;;44.13;12.45;;;;;;;17.99;100.00;96438.81;4979719;28;20458;-41
2022/10/10 04:50:39;;;;;;;37.00;12.32;;;;;;;18.17;100.00;96436.53;4969429;28;20082;-40
2022/10/10 04:53:07;;;;;;;114.88;13.32;;;;;;;18.08;100.00;96434.19;4970215;28;20078;-45
2022/10/10 04:55:35;;;;;;;35.80;12.73;;;;;;;18.08;100.00;96435.00;4971501;28;20529;-44
2022/10/10 04:58:03;;;;;;;45.38;12.68;;;;;;;18.12;100.00;96441.59;4969265;28;20078;-41
2022/10/10 05:00:32;;;;;;;40.65;13.02;;;;;;;18.03;100.00;96438.25;4969077;28;20067;-41
2022/10/10 05:03:00;;;;;;;86.80;13.07;;;;;;;17.96;100.00;96436.53;4964640;28;20078;-41
2022/10/10 05:05:29;;;;;;;35.83;12.32;;;;;;;18.36;100.00;96436.88;4961120;28;20075;-41
2022/10/10 05:07:58;;;;;;;56.53;12.30;;;;;;;17.94;100.00;96446.56;4965217;28;20518;-47
2022/10/10 05:10:27;;;;;;;48.67;13.35;;;;;;;18.12;100.00;96440.78;4965008;28;20516;-41
2022/10/10 05:12:55;;;;;;;36.35;12.60;;;;;;;18.23;100.00;96441.06;4961414;28;20059;-41
2022/10/10 05:15:23;;;;;;;53.78;13.55;;;;;;;17.95;100.00;96453.56;4963330;28;20584;-42
2022/10/10 05:18:42;;;;;;;39.28;13.35;;;;;;;18.32;100.00;96447.09;4961130;28;20061;-46
2022/10/10 05:21:11;;;;;;;60.08;14.35;;;;;;;18.38;100.00;96445.50;4960661;28;20082;-42
2022/10/10 05:23:40;;;;;;;53.13;14.65;;;;;;;18.38;100.00;96453.53;4965273;28;20086;-41
2022/10/10 05:26:18;;;;;;;46.40;13.73;;;;;;;18.46;100.00;96456.88;4967206;28;20078;-46
2022/10/10 05:28:47;;;;;;;57.05;14.05;;;;;;;18.39;100.00;96458.66;4965284;28;20078;-43
2022/10/10 05:31:15;;;;;;;48.08;14.40;;;;;;;18.56;100.00;96448.50;4971420;28;20082;-44
2022/10/10 05:33:44;;;;;;;102.63;16.50;;;;;;;18.11;100.00;96461.31;4964883;28;20082;-43
2022/10/10 05:36:14;;;;;;;64.90;17.05;;;;;;;18.67;100.00;96458.66;4966592;28;20081;-41
2022/10/10 05:38:42;;;;;;;44.38;15.25;;;;;;;18.78;100.00;96462.66;4968639;28;20075;-42
2022/10/10 05:41:11;;;;;;;43.88;15.23;;;;;;;18.80;100.00;96460.63;4968340;28;20082;-41
2022/10/10 05:43:39;;;;;;;63.03;16.55;;;;;;;18.59;100.00;96464.16;4965145;28;20082;-50
2022/10/10 05:46:07;;;;;;;46.88;15.48;;;;;;;17.72;100.00;96469.69;4967809;28;20074;-45
2022/10/10 05:48:36;;;;;;;89.07;15.90;;;;;;;18.23;100.00;96473.09;4969808;28;20082;-43
2022/10/10 05:51:04;;;;;;;34.22;14.02;;;;;;;18.67;100.00;96458.66;4968262;28;20086;-41
2022/10/10 05:53:34;;;;;;;56.05;15.35;;;;;;;18.74;100.00;96466.75;4965218;28;20162;-46
2022/10/10 05:56:02;;;;;;;76.20;15.50;;;;;;;19.04;100.00;96455.81;4964507;28;20082;-43
2022/10/10 05:58:30;;;;;;;43.78;16.35;;;;;;;18.25;100.00;96463.06;4966446;28;20074;-47
2022/10/10 06:01:03;;;;;;;50.47;15.95;;;;;;;18.70;100.00;96462.78;4966330;28;20529;-41
2022/10/10 06:03:31;;;;;;;32.35;13.82;;;;;;;18.67;100.00;96472.00;4965525;28;20089;-41
2022/10/10 06:06:01;;;;;;;57.33;15.20;;;;;;;18.33;100.00;96471.94;4980261;28;20070;-43
2022/10/10 06:08:31;;;;;;;46.03;14.65;;;;;;;18.44;100.00;96463.41;4969269;28;20102;-44
2022/10/10 06:11:06;;;;;;;37.15;13.30;;;;;;;18.48;100.00;96467.38;4967496;28;20090;-44
2022/10/10 06:13:35;;;;;;;53.63;37.28;;;;;;;17.94;100.00;96476.75;4970012;28;20086;-45
2022/10/10 06:16:03;;;;;;;23.80;12.38;;;;;;;18.75;100.00;96468.38;4964738;28;20078;-43
2022/10/10 06:18:31;;;;;;;21.55;12.15;;;;;;;18.78;100.00;96477.88;4969119;28;20494;-44
2022/10/10 06:21:01;;;;;;;27.17;13.63;;;;;;;18.58;100.00;96480.34;4968595;28;20066;-41
2022/10/10 06:23:30;;;;;;;23.03;13.90;;;;;;;18.64;100.00;96487.59;4962898;28;20546;-47
2022/10/10 06:25:58;;;;;;;27.45;13.73;;;;;;;18.83;100.00;96484.28;4960259;28;20506;-43
2022/10/10 06:28:28;;;;;;;43.75;33.55;;;;;;;18.79;100.00;96492.88;4963266;28;20078;-44
2022/10/10 06:30:59;;;;;;;36.80;17.23;;;;;;;18.95;100.00;96500.59;4967968;28;20074;-42
2022/10/10 06:33:28;;;;;;;19.10;11.98;;;;;;;18.45;100.00;96499.78;4967189;28;20569;-45
2022/10/10 06:35:56;;;;;;;14.63;10.57;;;;;;;18.43;100.00;96494.63;4966572;28;20078;-43
2022/10/10 06:38:26;;;;;;;19.15;13.20;;;;;;;19.01;100.00;96494.47;4962193;28;20517;-42
2022/10/10 06:40:54;;;;;;;16.90;13.02;;;;;;;19.42;100.00;96490.97;4963567;28;20074;-45
2022/10/10 06:43:29;;;;;;;20.50;11.38;;;;;;;19.44;100.00;96494.25;4960672;28;20085;-42
2022/10/10 06:45:57;;;;;;;15.68;11.02;;;;;;;19.03;100.00;96500.44;4962195;28;20066;-45
2022/10/10 06:48:26;;;;;;;13.93;10.02;;;;;;;19.16;100.00;96503.16;4963684;28;20062;-46
2022/10/10 06:50:59;;;;;;;21.77;12.40;;;;;;;19.14;100.00;96501.75;4964862;28;20070;-41
2022/10/10 06:53:27;;;;;;;38.17;10.90;;;;;;;18.69;100.00;96504.72;4965793;28;20160;-42
2022/10/10 06:55:56;;;;;;;43.15;13.48;;;;;;;19.46;100.00;96508.25;4967452;28;20478;-43
2022/10/10 06:58:25;;;;;;;67.55;11.55;;;;;;;18.91;100.00;96499.34;4965732;28;20082;-41
2022/10/10 07:00:57;;;;;;;72.50;12.93;;;;;;;19.70;100.00;96490.06;4955337;28;20086;-41
2022/10/10 07:03:27;;;;;;;51.65;12.38;;;;;;;19.87;100.00;96500.22;4958454;28;20078;-40
2022/10/10 07:05:58;;;;;;;47.42;12.20;;;;;;;19.68;100.00;96504.50;4961959;28;20688;-49
2022/10/10 07:08:27;;;;;;;69.40;12.70;;;;;;;19.72;100.00;96506.72;4962965;28;20113;-47
2022/10/10 07:10:56;;;;;;;53.97;12.90;;;;;;;19.43;100.00;96509.47;4964238;28;20102;-48
2022/10/10 07:13:24;;;;;;;73.10;13.82;;;;;;;19.39;100.00;96512.75;4965881;28;20549;-42
2022/10/10 07:15:54;;;;;;;29.92;12.00;;;;;;;19.60;100.00;96515.31;4961712;28;20086;-45
2022/10/10 07:18:23;;;;;;;23.45;13.13;;;;;;;19.38;100.00;96522.63;4962481;28;20553;-43
2022/10/10 07:20:55;;;;;;;14.65;10.57;;;;;;;20.14;100.00;96508.31;4963940;28;20457;-48
2022/10/10 07:23:24;;;;;;;12.48;9.68;;;;;;;20.40;100.00;96515.53;4959569;28;20082;-43
2022/10/10 07:25:52;;;;;;;13.48;10.50;;;;;;;19.63;100.00;96522.97;4962477;28;20530;-45
2022/10/10 07:28:21;;;;;;;12.70;9.90;;;;;;;20.23;100.00;96515.09;4963533;28;20089;-43
2022/10/10 07:30:49;;;;;;;13.07;10.10;;;;;;;20.85;100.00;96527.31;4963223;28;20101;-46
2022/10/10 07:33:18;;;;;;;12.55;9.23;;;;;;;20.02;100.00;96525.97;4967727;28;20074;-46
2022/10/10 07:35:52;;;;;;;12.13;8.70;;;;;;;19.90;100.00;96528.44;4966868;28;20093;-41
2022/10/10 07:38:21;;;;;;;12.98;9.57;;;;;;;20.83;100.00;96528.56;4965599;28;21847;-43
2022/10/10 07:40:49;;;;;;;12.05;9.40;;;;;;;20.59;100.00;96533.50;4966711;28;20094;-41
2022/10/10 07:43:17;;;;;;;12.90;10.02;;;;;;;20.84;100.00;96535.56;4967360;28;20606;-42
2022/10/10 07:45:45;;;;;;;13.13;9.80;;;;;;;21.01;100.00;96533.28;4969019;28;20695;-45
2022/10/10 07:48:14;;;;;;;12.70;9.85;;;;;;;20.80;100.00;96540.50;4965475;28;20093;-45
2022/10/10 07:50:44;;;;;;;10.32;8.13;;;;;;;20.88;100.00;96539.47;4969330;28;20426;-44
2022/10/10 07:53:13;;;;;;;11.98;9.05;;;;;;;21.10;100.00;96537.41;4965067;28;20078;-45
2022/10/10 07:55:41;;;;;;;11.52;8.80;;;;;;;20.86;100.00;96539.69;4966435;28;20082;-46
2022/10/10 07:58:10;;;;;;;11.77;9.35;;;;;;;20.51;100.00;96544.44;4968214;28;20070;-44
2022/10/10 08:00:40;;;;;;;11.07;8.75;;;;;;;20.82;100.00;96537.63;4966675;28;20081;-43
2022/10/10 08:03:09;;;;;;;14.63;10.38;;;;;;;20.29;100.00;96541.06;4968197;28;20097;-46
2022/10/10 08:05:40;;;;;;;11.27;9.10;;;;;;;19.61;100.00;96541.06;4967527;28;20098;-46
2022/10/10 08:08:11;;;;;;;13.02;9.73;;;;;;;21.01;100.00;96542.13;4967037;28;20454;-43
2022/10/10 08:10:43;;;;;;;13.57;9.43;;;;;;;20.97;100.00;96542.78;4965309;28;20078;-44
2022/10/10 08:13:11;;;;;;;12.25;9.40;;;;;;;21.39;100.00;96546.84;4962832;28;20082;-44
2022/10/10 08:15:39;;;;;;;14.10;10.30;;;;;;;19.71;100.00;96546.03;4963943;28;20086;-41
2022/10/10 08:18:08;;;;;;;14.93;10.45;;;;;;;21.16;100.00;96541.09;4966400;28;20078;-47
2022/10/10 08:20:36;;;;;;;13.50;10.63;;;;;;;20.15;100.00;96545.56;4966117;28;20082;-44
2022/10/10 08:23:04;;;;;;;12.23;10.13;;;;;;;20.75;100.00;96544.84;4965512;28;20465;-46
2022/10/10 08:25:34;;;;;;;12.70;10.20;;;;;;;21.98;100.00;96543.09;4965885;28;20085;-47
2022/10/10 08:28:02;;;;;;;13.07;9.93;;;;;;;21.51;100.00;96547.84;4963225;28;20094;-41
2022/10/10 08:30:30;;;;;;;12.63;9.55;;;;;;;21.82;100.00;96540.94;4962939;28;20078;-45
2022/10/10 08:33:00;;;;;;;10.55;9.15;;;;;;;21.55;100.00;96548.25;4966503;28;20556;-42
2022/10/10 08:35:46;;;;;;;10.30;7.88;;;;;;;21.90;100.00;96551.41;4967576;28;20474;-49
2022/10/10 08:38:14;;;;;;;9.68;7.88;;;;;;;21.91;100.00;96545.00;4962137;28;20086;-44
2022/10/10 08:40:46;;;;;;;10.55;8.50;;;;;;;22.10;100.00;96547.81;4964504;28;20545;-47
2022/10/10 08:43:21;;;;;;;8.52;6.88;;;;;;;22.23;100.00;96553.16;4962872;28;20101;-39
2022/10/10 08:45:50;;;;;;;8.77;6.82;;;;;;;22.38;100.00;96542.91;4964342;28;20179;-43
2022/10/10 08:48:22;;;;;;;11.07;6.80;;;;;;;22.40;100.00;96543.53;4966417;28;20082;-43
2022/10/10 08:50:55;;;;;;;9.32;6.75;;;;;;;22.08;100.00;96544.50;4964923;28;20545;-44
2022/10/10 08:53:30;;;;;;;7.35;6.63;;;;;;;21.00;100.00;96558.44;4968655;28;20086;-43
2022/10/10 08:56:00;;;;;;;10.68;6.70;;;;;;;21.98;100.00;96547.66;4968443;28;20075;-42
2022/10/10 08:58:31;;;;;;;9.50;6.65;;;;;;;22.41;100.00;96547.84;4970570;28;20094;-43
2022/10/10 09:01:03;;;;;;;10.15;6.85;;;;;;;22.10;100.00;96537.06;4967291;28;20086;-43
2022/10/10 09:03:37;;;;;;;12.10;6.97;;;;;;;23.14;100.00;96543.78;4968008;28;20082;-45
2022/10/10 09:06:18;;;;;;;10.85;6.70;;;;;;;22.07;100.00;96545.56;4967777;28;20459;-43
2022/10/10 09:08:50;;;;;;;8.95;6.75;;;;;;;22.61;100.00;96538.81;4966248;28;20078;-41
2022/10/10 09:11:33;;;;;;;7.60;6.72;;;;;;;22.47;100.00;96544.31;4969221;28;20078;-44
2022/10/10 09:14:13;;;;;;;11.45;6.88;;;;;;;22.87;100.00;96535.91;4968854;28;20079;-42
2022/10/10 09:16:48;;;;;;;7.72;6.15;;;;;;;22.57;100.00;96540.28;4966225;28;20078;-42
2022/10/10 09:19:28;;;;;;;10.05;6.35;;;;;;;22.48;100.00;96547.81;4964033;28;20082;-43
2022/10/10 09:22:00;;;;;;;9.15;6.53;;;;;;;22.37;100.00;96551.19;4967480;28;20082;-47
2022/10/10 09:24:32;;;;;;;9.15;6.68;;;;;;;21.82;100.00;96548.97;4969275;28;20063;-40
2022/10/10 09:27:04;;;;;;;10.65;6.22;;;;;;;23.09;100.00;96546.28;4967028;28;20086;-43
2022/10/10 09:29:38;;;;;;;8.80;6.57;;;;;;;23.85;100.00;96542.41;4965679;28;20078;-49
2022/10/10 09:32:11;;;;;;;9.50;6.25;;;;;;;24.41;100.00;96540.44;4966619;28;20082;-46
2022/10/10 09:34:42;;;;;;;7.85;6.25;;;;;;;24.91;93.45;96543.53;4967876;28;20078;-40
2022/10/10 09:37:30;;;;;;;9.13;5.55;;;;;;;25.16;94.06;96537.16;4967892;28;20070;-45
2022/10/10 09:40:20;;;;;;;10.70;5.38;;;;;;;25.08;89.83;96546.38;4968416;28;20078;-46
2022/10/10 09:42:49;;;;;;;7.72;5.18;;;;;;;25.15;90.08;96539.00;4966931;28;20086;-41
2022/10/10 09:45:19;;;;;;;8.38;5.45;;;;;;;24.11;98.74;96552.00;4961989;28;20098;-43
2022/10/10 09:47:49;;;;;;;7.45;5.45;;;;;;;24.28;100.00;96534.13;4964133;28;20129;-44
2022/10/10 09:50:17;;;;;;;8.47;5.10;;;;;;;25.54;88.29;96540.16;4967760;28;20086;-42
2022/10/10 09:52:47;;;;;;;8.15;4.90;;;;;;;24.98;88.72;96548.84;4967692;28;20061;-44
2022/10/10 09:55:23;;;;;;;6.80;4.80;;;;;;;26.22;79.67;96540.44;4968571;28;20071;-41
2022/10/10 09:57:55;;;;;;;8.90;4.55;;;;;;;26.28;76.17;96536.78;4974472;28;20074;-47
2022/10/10 10:00:32;;;;;;;5.70;3.78;;;;;;;25.20;93.40;96546.44;4965021;28;20486;-45
2022/10/10 10:03:06;;;;;;;6.50;4.07;;;;;;;24.43;97.79;96544.50;4963590;28;20096;-42
2022/10/10 10:05:35;;;;;;;6.82;4.35;;;;;;;25.05;86.48;96550.38;4963382;28;20100;-42
2022/10/10 10:08:03;;;;;;;7.60;4.38;;;;;;;25.49;86.96;96540.03;4959852;28;20093;-42
2022/10/10 10:10:35;;;;;;;8.35;4.00;;;;;;;24.35;97.25;96542.94;4963822;28;20066;-41
2022/10/10 10:13:13;;;;;;;6.57;3.90;;;;;;;24.58;100.00;96541.41;4963903;28;20086;-41
2022/10/10 10:15:47;;;;;;;6.10;4.40;;;;;;;25.78;76.29;96537.44;4961057;28;20094;-44
2022/10/10 10:18:23;;;;;;;6.60;4.40;;;;;;;25.58;81.05;96548.63;4963911;28;20070;-43
2022/10/10 10:20:53;;;;;;;8.75;4.15;;;;;;;25.73;87.76;96546.22;4964950;28;20086;-44
2022/10/10 10:23:27;;;;;;;5.47;3.67;;;;;;;25.71;77.52;96542.97;4965427;28;20082;-47
2022/10/10 10:25:59;;;;;;;5.57;4.07;;;;;;;26.08;71.04;96531.81;4963536;28;20481;-48
2022/10/10 10:28:30;;;;;;;5.80;3.67;;;;;;;25.88;75.43;96537.66;4963207;28;20537;-41
2022/10/10 10:30:59;;;;;;;7.25;3.30;;;;;;;25.31;87.42;96545.59;4963570;28;20469;-41
2022/10/10 10:33:38;;;;;;;5.55;3.10;;;;;;;24.70;95.53;96541.41;4964174;28;20478;-44
2022/10/10 10:36:16;;;;;;;5.85;3.33;;;;;;;24.46;93.03;96541.34;4964637;28;20085;-50
2022/10/10 10:38:50;;;;;;;6.43;3.22;;;;;;;24.63;98.99;96545.03;4964737;28;20081;-41
2022/10/10 10:41:24;;;;;;;8.68;3.15;;;;;;;24.93;92.78;96541.44;4961652;28;20083;-44
2022/10/10 10:44:03;;;;;;;7.85;3.55;;;;;;;25.63;78.85;96543.31;4960740;28;20087;-45
2022/10/10 10:46:39;;;;;;;4.57;3.10;;;;;;;26.09;80.21;96536.19;4961583;28;20078;-45
2022/10/10 10:49:14;;;;;;;4.57;3.30;;;;;;;25.53;80.67;96541.25;4963475;28;20074;-50
2022/10/10 10:51:52;;;;;;;6.15;3.13;;;;;;;25.23;81.53;96538.69;4962727;28;20086;-43
2022/10/10 10:54:30;;;;;;;7.30;2.90;;;;;;;26.13;73.91;96529.22;4973312;28;20070;-47
2022/10/10 10:57:02;;;;;;;4.88;2.70;;;;;;;26.36;75.21;96533.72;4960954;28;20517;-43
2022/10/10 10:59:44;;;;;;;6.47;3.22;;;;;;;26.13;76.26;96517.59;4962567;28;20062;-47
2022/10/10 11:02:38;;;;;;;6.32;3.08;;;;;;;27.02;67.57;96519.66;4960400;28;20082;-46
2022/10/10 11:05:34;;;;;;;8.35;2.80;;;;;;;26.41;70.77;96520.25;4967306;28;20090;-43
2022/10/10 11:08:42;;;;;;;24.42;3.38;;;;;;;25.18;86.83;96526.94;4965163;28;20096;-42
2022/10/10 11:11:20;;;;;;;8.35;2.80;;;;;;;25.61;84.33;96518.44;4963497;28;20082;-45
2022/10/10 11:13:55;;;;;;;3.95;2.55;;;;;;;25.60;85.83;96529.47;4968787;28;20092;-42
2022/10/10 11:16:27;;;;;;;8.75;2.80;;;;;;;26.20;79.57;96510.16;4967550;28;20478;-43
2022/10/10 11:19:22;;;;;;;5.15;2.92;;;;;;;25.91;83.49;96514.72;4979309;28;20074;-45
2022/10/10 11:21:57;;;;;;;6.10;2.72;;;;;;;26.84;67.06;96502.63;4969771;28;20069;-42
2022/10/10 11:24:34;;;;;;;7.88;2.72;;;;;;;25.79;82.38;96510.19;4969841;28;20529;-43
2022/10/10 11:27:23;;;;;;;6.15;2.83;;;;;;;26.42;80.73;96502.97;4971396;28;20466;-43
2022/10/10 11:29:59;;;;;;;4.32;2.95;;;;;;;26.83;67.92;96497.44;4975319;28;20496;-44
2022/10/10 11:32:33;;;;;;;5.10;2.88;;;;;;;26.26;73.40;96509.19;4972586;28;20066;-43
2022/10/10 11:35:14;;;;;;;4.78;2.72;;;;;;;26.84;63.99;96501.78;4973945;28;20067;-47
2022/10/10 11:37:46;;;;;;;6.20;2.75;;;;;;;27.36;61.84;96504.22;4973482;28;20071;-46
2022/10/10 11:40:27;;;;;;;9.90;3.60;;;;;;;27.61;60.57;96507.25;4960522;28;20082;-46